sensor_id;sensor_type;location;lat;lon;timestamp;P1;durP1;ratioP1;P2;durP2;ratioP2
14088;SDS011;7120;52.890;6.040;2024-02-14T00:02:07;39.13;;;18.60;;
14088;SDS011;7120;52.890;6.040;2024-02-14T00:04:32;32.77;;;18.93;;
14088;SDS011;7120;52.890;6.040;2024-02-14T00:06:58;26.67;;;17.80;;
14088;SDS011;7120;52.890;6.040;2024-02-14T00:09:24;38.03;;;19.40;;
14088;SDS011;7120;52.890;6.040;2024-02-14T00:11:49;36.00;;;19.20;;
14088;SDS011;7120;52.890;6.040;2024-02-14T00:14:14;36.97;;;20.10;;
14088;SDS011;7120;52.890;6.040;2024-02-14T00:16:40;39.40;;;20.60;;
14088;SDS011;7120;52.890;6.040;2024-02-14T00:19:06;32.67;;;19.30;;
14088;SDS011;7120;52.890;6.040;2024-02-14T00:21:32;27.20;;;18.73;;
14088;SDS011;7120;52.890;6.040;2024-02-14T00:23:59;41.50;;;21.00;;
14088;SDS011;7120;52.890;6.040;2024-02-14T00:26:24;33.87;;;19.40;;
14088;SDS011;7120;52.890;6.040;2024-02-14T00:28:49;27.33;;;19.27;;
14088;SDS011;7120;52.890;6.040;2024-02-14T00:31:15;34.23;;;20.13;;
14088;SDS011;7120;52.890;6.040;2024-02-14T00:33:41;28.57;;;18.83;;
14088;SDS011;7120;52.890;6.040;2024-02-14T00:36:06;35.57;;;19.53;;
14088;SDS011;7120;52.890;6.040;2024-02-14T00:38:32;30.40;;;19.30;;
14088;SDS011;7120;52.890;6.040;2024-02-14T00:40:57;26.67;;;18.73;;
14088;SDS011;7120;52.890;6.040;2024-02-14T00:43:23;33.13;;;18.83;;
14088;SDS011;7120;52.890;6.040;2024-02-14T00:45:48;36.10;;;20.30;;
14088;SDS011;7120;52.890;6.040;2024-02-14T00:48:13;31.10;;;18.60;;
14088;SDS011;7120;52.890;6.040;2024-02-14T00:50:39;26.90;;;18.17;;
14088;SDS011;7120;52.890;6.040;2024-02-14T00:53:04;35.33;;;19.10;;
14088;SDS011;7120;52.890;6.040;2024-02-14T00:55:29;28.10;;;18.27;;
14088;SDS011;7120;52.890;6.040;2024-02-14T00:57:55;28.87;;;18.47;;
14088;SDS011;7120;52.890;6.040;2024-02-14T01:00:20;27.87;;;17.20;;
14088;SDS011;7120;52.890;6.040;2024-02-14T01:02:46;22.23;;;16.80;;
14088;SDS011;7120;52.890;6.040;2024-02-14T01:05:11;29.47;;;17.93;;
14088;SDS011;7120;52.890;6.040;2024-02-14T01:07:37;22.40;;;16.97;;
14088;SDS011;7120;52.890;6.040;2024-02-14T01:10:02;26.27;;;17.47;;
14088;SDS011;7120;52.890;6.040;2024-02-14T01:12:28;29.43;;;18.87;;
14088;SDS011;7120;52.890;6.040;2024-02-14T01:14:56;20.83;;;17.37;;
14088;SDS011;7120;52.890;6.040;2024-02-14T01:17:22;29.77;;;17.97;;
14088;SDS011;7120;52.890;6.040;2024-02-14T01:19:47;25.03;;;17.70;;
14088;SDS011;7120;52.890;6.040;2024-02-14T01:22:13;21.33;;;16.33;;
14088;SDS011;7120;52.890;6.040;2024-02-14T01:24:41;31.37;;;17.50;;
14088;SDS011;7120;52.890;6.040;2024-02-14T01:27:07;28.60;;;18.03;;
14088;SDS011;7120;52.890;6.040;2024-02-14T01:29:33;25.93;;;17.67;;
14088;SDS011;7120;52.890;6.040;2024-02-14T01:31:59;30.87;;;18.07;;
14088;SDS011;7120;52.890;6.040;2024-02-14T01:34:24;28.67;;;18.00;;
14088;SDS011;7120;52.890;6.040;2024-02-14T01:36:49;22.13;;;16.57;;
14088;SDS011;7120;52.890;6.040;2024-02-14T01:39:15;23.33;;;15.77;;
14088;SDS011;7120;52.890;6.040;2024-02-14T01:41:46;28.50;;;16.77;;
14088;SDS011;7120;52.890;6.040;2024-02-14T01:44:13;23.13;;;15.20;;
14088;SDS011;7120;52.890;6.040;2024-02-14T01:46:42;25.93;;;15.67;;
14088;SDS011;7120;52.890;6.040;2024-02-14T01:49:09;22.83;;;14.67;;
14088;SDS011;7120;52.890;6.040;2024-02-14T01:51:36;22.17;;;14.67;;
14088;SDS011;7120;52.890;6.040;2024-02-14T01:54:03;18.30;;;14.53;;
14088;SDS011;7120;52.890;6.040;2024-02-14T01:56:29;21.10;;;14.73;;
14088;SDS011;7120;52.890;6.040;2024-02-14T01:58:56;19.43;;;14.53;;
14088;SDS011;7120;52.890;6.040;2024-02-14T02:01:22;19.47;;;13.27;;
14088;SDS011;7120;52.890;6.040;2024-02-14T02:03:49;23.87;;;14.47;;
14088;SDS011;7120;52.890;6.040;2024-02-14T02:06:14;17.80;;;13.63;;
14088;SDS011;7120;52.890;6.040;2024-02-14T02:08:44;19.90;;;14.33;;
14088;SDS011;7120;52.890;6.040;2024-02-14T02:11:09;20.27;;;14.13;;
14088;SDS011;7120;52.890;6.040;2024-02-14T02:13:35;24.40;;;14.53;;
14088;SDS011;7120;52.890;6.040;2024-02-14T02:16:01;18.97;;;14.20;;
14088;SDS011;7120;52.890;6.040;2024-02-14T02:18:29;25.50;;;14.73;;
14088;SDS011;7120;52.890;6.040;2024-02-14T02:20:55;19.73;;;14.60;;
14088;SDS011;7120;52.890;6.040;2024-02-14T02:23:21;20.13;;;15.83;;
14088;SDS011;7120;52.890;6.040;2024-02-14T02:25:46;22.60;;;14.93;;
14088;SDS011;7120;52.890;6.040;2024-02-14T02:28:12;20.43;;;15.23;;
14088;SDS011;7120;52.890;6.040;2024-02-14T02:30:39;21.03;;;15.63;;
14088;SDS011;7120;52.890;6.040;2024-02-14T02:33:04;27.07;;;16.13;;
14088;SDS011;7120;52.890;6.040;2024-02-14T02:35:30;27.73;;;16.10;;
14088;SDS011;7120;52.890;6.040;2024-02-14T02:37:55;25.43;;;15.77;;
14088;SDS011;7120;52.890;6.040;2024-02-14T02:40:21;36.03;;;17.30;;
14088;SDS011;7120;52.890;6.040;2024-02-14T02:42:47;28.33;;;16.60;;
14088;SDS011;7120;52.890;6.040;2024-02-14T02:45:13;29.53;;;17.40;;
14088;SDS011;7120;52.890;6.040;2024-02-14T02:47:38;26.37;;;17.17;;
14088;SDS011;7120;52.890;6.040;2024-02-14T02:50:05;29.03;;;19.07;;
14088;SDS011;7120;52.890;6.040;2024-02-14T02:52:31;29.97;;;19.27;;
14088;SDS011;7120;52.890;6.040;2024-02-14T02:54:56;34.00;;;19.60;;
14088;SDS011;7120;52.890;6.040;2024-02-14T02:57:22;41.53;;;19.93;;
14088;SDS011;7120;52.890;6.040;2024-02-14T02:59:47;37.50;;;19.60;;
14088;SDS011;7120;52.890;6.040;2024-02-14T03:02:14;50.47;;;20.60;;
14088;SDS011;7120;52.890;6.040;2024-02-14T03:04:40;33.23;;;19.30;;
14088;SDS011;7120;52.890;6.040;2024-02-14T03:07:09;36.33;;;19.00;;
14088;SDS011;7120;52.890;6.040;2024-02-14T03:09:35;40.27;;;20.27;;
14088;SDS011;7120;52.890;6.040;2024-02-14T03:12:01;40.77;;;20.27;;
14088;SDS011;7120;52.890;6.040;2024-02-14T03:14:28;42.53;;;20.60;;
14088;SDS011;7120;52.890;6.040;2024-02-14T03:16:59;27.67;;;18.43;;
14088;SDS011;7120;52.890;6.040;2024-02-14T03:19:25;31.93;;;19.07;;
14088;SDS011;7120;52.890;6.040;2024-02-14T03:21:55;29.90;;;19.53;;
14088;SDS011;7120;52.890;6.040;2024-02-14T03:24:21;36.47;;;20.57;;
14088;SDS011;7120;52.890;6.040;2024-02-14T03:26:46;41.33;;;20.17;;
14088;SDS011;7120;52.890;6.040;2024-02-14T03:29:12;32.80;;;19.00;;
14088;SDS011;7120;52.890;6.040;2024-02-14T03:31:38;36.87;;;19.10;;
14088;SDS011;7120;52.890;6.040;2024-02-14T03:34:03;23.97;;;16.77;;
14088;SDS011;7120;52.890;6.040;2024-02-14T03:36:29;34.17;;;18.63;;
14088;SDS011;7120;52.890;6.040;2024-02-14T03:38:56;28.67;;;18.50;;
14088;SDS011;7120;52.890;6.040;2024-02-14T03:41:22;28.57;;;18.57;;
14088;SDS011;7120;52.890;6.040;2024-02-14T03:43:47;30.57;;;18.17;;
14088;SDS011;7120;52.890;6.040;2024-02-14T03:46:13;36.30;;;18.67;;
14088;SDS011;7120;52.890;6.040;2024-02-14T03:48:38;33.33;;;18.27;;
14088;SDS011;7120;52.890;6.040;2024-02-14T03:51:05;31.43;;;18.13;;
14088;SDS011;7120;52.890;6.040;2024-02-14T03:53:31;36.53;;;19.90;;
14088;SDS011;7120;52.890;6.040;2024-02-14T03:55:58;29.00;;;17.93;;
14088;SDS011;7120;52.890;6.040;2024-02-14T03:58:23;33.97;;;18.83;;
14088;SDS011;7120;52.890;6.040;2024-02-14T04:00:51;28.13;;;18.53;;
14088;SDS011;7120;52.890;6.040;2024-02-14T04:03:17;34.43;;;18.60;;
14088;SDS011;7120;52.890;6.040;2024-02-14T04:05:42;25.50;;;18.03;;
14088;SDS011;7120;52.890;6.040;2024-02-14T04:08:08;31.03;;;20.03;;
14088;SDS011;7120;52.890;6.040;2024-02-14T04:10:35;31.13;;;18.90;;
14088;SDS011;7120;52.890;6.040;2024-02-14T04:13:01;33.43;;;19.60;;
14088;SDS011;7120;52.890;6.040;2024-02-14T04:15:28;33.33;;;20.03;;
14088;SDS011;7120;52.890;6.040;2024-02-14T04:17:53;33.90;;;19.40;;
14088;SDS011;7120;52.890;6.040;2024-02-14T04:20:18;37.73;;;20.10;;
14088;SDS011;7120;52.890;6.040;2024-02-14T04:22:44;32.00;;;19.67;;
14088;SDS011;7120;52.890;6.040;2024-02-14T04:25:09;28.20;;;19.20;;
14088;SDS011;7120;52.890;6.040;2024-02-14T04:27:35;29.83;;;18.73;;
14088;SDS011;7120;52.890;6.040;2024-02-14T04:30:01;35.83;;;19.57;;
14088;SDS011;7120;52.890;6.040;2024-02-14T04:32:27;34.00;;;19.20;;
14088;SDS011;7120;52.890;6.040;2024-02-14T04:34:52;37.13;;;19.87;;
14088;SDS011;7120;52.890;6.040;2024-02-14T04:37:21;36.63;;;20.07;;
14088;SDS011;7120;52.890;6.040;2024-02-14T04:39:46;31.87;;;20.03;;
14088;SDS011;7120;52.890;6.040;2024-02-14T04:42:12;32.10;;;19.10;;
14088;SDS011;7120;52.890;6.040;2024-02-14T04:44:37;31.77;;;19.77;;
14088;SDS011;7120;52.890;6.040;2024-02-14T04:47:04;34.23;;;17.73;;
14088;SDS011;7120;52.890;6.040;2024-02-14T04:49:29;29.20;;;17.03;;
14088;SDS011;7120;52.890;6.040;2024-02-14T04:51:55;32.33;;;17.07;;
14088;SDS011;7120;52.890;6.040;2024-02-14T04:54:21;27.93;;;16.87;;
14088;SDS011;7120;52.890;6.040;2024-02-14T04:56:46;33.03;;;17.60;;
14088;SDS011;7120;52.890;6.040;2024-02-14T04:59:11;38.70;;;18.30;;
14088;SDS011;7120;52.890;6.040;2024-02-14T05:01:37;27.60;;;16.67;;
14088;SDS011;7120;52.890;6.040;2024-02-14T05:04:04;31.57;;;17.23;;
14088;SDS011;7120;52.890;6.040;2024-02-14T05:06:29;27.70;;;15.43;;
14088;SDS011;7120;52.890;6.040;2024-02-14T05:08:55;33.23;;;16.20;;
14088;SDS011;7120;52.890;6.040;2024-02-14T05:11:20;27.83;;;13.90;;
14088;SDS011;7120;52.890;6.040;2024-02-14T05:13:46;26.10;;;14.53;;
14088;SDS011;7120;52.890;6.040;2024-02-14T05:16:12;27.77;;;14.77;;
14088;SDS011;7120;52.890;6.040;2024-02-14T05:18:37;20.23;;;13.83;;
14088;SDS011;7120;52.890;6.040;2024-02-14T05:21:06;25.13;;;13.37;;
14088;SDS011;7120;52.890;6.040;2024-02-14T05:23:32;30.97;;;14.33;;
14088;SDS011;7120;52.890;6.040;2024-02-14T05:25:59;27.80;;;14.70;;
14088;SDS011;7120;52.890;6.040;2024-02-14T05:28:24;31.63;;;14.60;;
14088;SDS011;7120;52.890;6.040;2024-02-14T05:30:53;33.17;;;15.97;;
14088;SDS011;7120;52.890;6.040;2024-02-14T05:33:18;42.27;;;16.17;;
14088;SDS011;7120;52.890;6.040;2024-02-14T05:35:47;50.77;;;18.53;;
14088;SDS011;7120;52.890;6.040;2024-02-14T05:38:12;43.70;;;17.00;;
14088;SDS011;7120;52.890;6.040;2024-02-14T05:40:38;46.63;;;17.03;;
14088;SDS011;7120;52.890;6.040;2024-02-14T05:43:04;48.00;;;16.90;;
14088;SDS011;7120;52.890;6.040;2024-02-14T05:45:30;45.10;;;18.37;;
14088;SDS011;7120;52.890;6.040;2024-02-14T05:47:55;47.47;;;17.00;;
14088;SDS011;7120;52.890;6.040;2024-02-14T05:50:20;53.87;;;17.07;;
14088;SDS011;7120;52.890;6.040;2024-02-14T05:52:46;50.63;;;17.13;;
14088;SDS011;7120;52.890;6.040;2024-02-14T05:55:11;47.93;;;16.90;;
14088;SDS011;7120;52.890;6.040;2024-02-14T05:57:36;56.60;;;16.33;;
14088;SDS011;7120;52.890;6.040;2024-02-14T06:00:02;55.83;;;16.63;;
14088;SDS011;7120;52.890;6.040;2024-02-14T06:02:28;51.40;;;16.33;;
14088;SDS011;7120;52.890;6.040;2024-02-14T06:04:54;63.67;;;14.07;;
14088;SDS011;7120;52.890;6.040;2024-02-14T06:07:19;66.10;;;16.40;;
14088;SDS011;7120;52.890;6.040;2024-02-14T06:09:44;57.73;;;15.57;;
14088;SDS011;7120;52.890;6.040;2024-02-14T06:12:10;65.47;;;16.27;;
14088;SDS011;7120;52.890;6.040;2024-02-14T06:14:36;62.97;;;15.87;;
14088;SDS011;7120;52.890;6.040;2024-02-14T06:17:01;51.67;;;14.83;;
14088;SDS011;7120;52.890;6.040;2024-02-14T06:19:27;59.77;;;14.13;;
14088;SDS011;7120;52.890;6.040;2024-02-14T06:21:53;55.27;;;13.77;;
14088;SDS011;7120;52.890;6.040;2024-02-14T06:24:18;54.90;;;14.20;;
14088;SDS011;7120;52.890;6.040;2024-02-14T06:26:44;58.43;;;13.90;;
14088;SDS011;7120;52.890;6.040;2024-02-14T06:29:10;57.93;;;13.93;;
14088;SDS011;7120;52.890;6.040;2024-02-14T06:31:35;51.00;;;13.73;;
14088;SDS011;7120;52.890;6.040;2024-02-14T06:34:01;58.20;;;13.63;;
14088;SDS011;7120;52.890;6.040;2024-02-14T06:36:26;54.13;;;13.53;;
14088;SDS011;7120;52.890;6.040;2024-02-14T06:38:52;53.43;;;12.37;;
14088;SDS011;7120;52.890;6.040;2024-02-14T06:41:18;57.50;;;13.73;;
14088;SDS011;7120;52.890;6.040;2024-02-14T06:43:46;52.97;;;13.17;;
14088;SDS011;7120;52.890;6.040;2024-02-14T06:46:12;50.17;;;12.80;;
14088;SDS011;7120;52.890;6.040;2024-02-14T06:48:37;45.60;;;12.87;;
14088;SDS011;7120;52.890;6.040;2024-02-14T06:51:02;46.47;;;14.33;;
14088;SDS011;7120;52.890;6.040;2024-02-14T06:53:28;51.53;;;15.33;;
14088;SDS011;7120;52.890;6.040;2024-02-14T06:55:53;45.70;;;14.43;;
14088;SDS011;7120;52.890;6.040;2024-02-14T06:58:19;52.20;;;15.10;;
14088;SDS011;7120;52.890;6.040;2024-02-14T07:00:44;66.90;;;14.93;;
14088;SDS011;7120;52.890;6.040;2024-02-14T07:03:09;57.50;;;14.07;;
14088;SDS011;7120;52.890;6.040;2024-02-14T07:05:35;58.60;;;15.37;;
14088;SDS011;7120;52.890;6.040;2024-02-14T07:08:00;48.23;;;13.93;;
14088;SDS011;7120;52.890;6.040;2024-02-14T07:10:26;49.77;;;14.10;;
14088;SDS011;7120;52.890;6.040;2024-02-14T07:12:52;47.67;;;13.40;;
14088;SDS011;7120;52.890;6.040;2024-02-14T07:15:17;56.03;;;14.47;;
14088;SDS011;7120;52.890;6.040;2024-02-14T07:17:42;66.40;;;14.50;;
14088;SDS011;7120;52.890;6.040;2024-02-14T07:20:08;53.63;;;14.63;;
14088;SDS011;7120;52.890;6.040;2024-02-14T07:22:34;45.30;;;14.03;;
14088;SDS011;7120;52.890;6.040;2024-02-14T07:25:00;51.37;;;13.87;;
14088;SDS011;7120;52.890;6.040;2024-02-14T07:27:26;44.07;;;13.10;;
14088;SDS011;7120;52.890;6.040;2024-02-14T07:29:52;52.20;;;13.20;;
14088;SDS011;7120;52.890;6.040;2024-02-14T07:32:17;36.27;;;12.30;;
14088;SDS011;7120;52.890;6.040;2024-02-14T07:34:42;51.30;;;11.87;;
14088;SDS011;7120;52.890;6.040;2024-02-14T07:37:08;48.47;;;11.60;;
14088;SDS011;7120;52.890;6.040;2024-02-14T07:39:34;39.27;;;12.33;;
14088;SDS011;7120;52.890;6.040;2024-02-14T07:42:00;36.37;;;12.33;;
14088;SDS011;7120;52.890;6.040;2024-02-14T07:44:26;50.50;;;12.47;;
14088;SDS011;7120;52.890;6.040;2024-02-14T07:46:52;37.03;;;12.67;;
14088;SDS011;7120;52.890;6.040;2024-02-14T07:49:18;43.37;;;11.53;;
14088;SDS011;7120;52.890;6.040;2024-02-14T07:51:47;37.43;;;12.13;;
14088;SDS011;7120;52.890;6.040;2024-02-14T07:54:13;43.67;;;13.23;;
14088;SDS011;7120;52.890;6.040;2024-02-14T07:56:41;49.50;;;13.23;;
14088;SDS011;7120;52.890;6.040;2024-02-14T07:59:07;53.10;;;14.13;;
14088;SDS011;7120;52.890;6.040;2024-02-14T08:01:32;35.40;;;13.27;;
14088;SDS011;7120;52.890;6.040;2024-02-14T08:03:58;39.60;;;13.63;;
14088;SDS011;7120;52.890;6.040;2024-02-14T08:06:23;40.43;;;13.60;;
14088;SDS011;7120;52.890;6.040;2024-02-14T08:08:49;41.13;;;13.63;;
14088;SDS011;7120;52.890;6.040;2024-02-14T08:11:17;38.00;;;13.13;;
14088;SDS011;7120;52.890;6.040;2024-02-14T08:13:42;48.27;;;14.93;;
14088;SDS011;7120;52.890;6.040;2024-02-14T08:16:08;57.43;;;14.33;;
14088;SDS011;7120;52.890;6.040;2024-02-14T08:18:33;30.93;;;12.53;;
14088;SDS011;7120;52.890;6.040;2024-02-14T08:21:00;41.63;;;14.67;;
14088;SDS011;7120;52.890;6.040;2024-02-14T08:23:25;41.87;;;14.67;;
14088;SDS011;7120;52.890;6.040;2024-02-14T08:25:51;42.40;;;14.50;;
14088;SDS011;7120;52.890;6.040;2024-02-14T08:28:16;46.17;;;13.97;;
14088;SDS011;7120;52.890;6.040;2024-02-14T08:30:43;40.77;;;14.17;;
14088;SDS011;7120;52.890;6.040;2024-02-14T08:33:09;39.00;;;13.23;;
14088;SDS011;7120;52.890;6.040;2024-02-14T08:35:35;38.17;;;13.73;;
14088;SDS011;7120;52.890;6.040;2024-02-14T08:38:01;41.30;;;12.77;;
14088;SDS011;7120;52.890;6.040;2024-02-14T08:40:27;39.13;;;12.80;;
14088;SDS011;7120;52.890;6.040;2024-02-14T08:42:55;46.03;;;27.30;;
14088;SDS011;7120;52.890;6.040;2024-02-14T08:45:21;140.87;;;127.50;;
14088;SDS011;7120;52.890;6.040;2024-02-14T08:47:46;38.63;;;17.47;;
14088;SDS011;7120;52.890;6.040;2024-02-14T08:50:11;39.70;;;20.77;;
14088;SDS011;7120;52.890;6.040;2024-02-14T08:52:37;41.20;;;15.20;;
14088;SDS011;7120;52.890;6.040;2024-02-14T08:55:06;47.90;;;17.83;;
14088;SDS011;7120;52.890;6.040;2024-02-14T08:57:36;35.57;;;16.90;;
14088;SDS011;7120;52.890;6.040;2024-02-14T09:00:02;45.73;;;17.10;;
14088;SDS011;7120;52.890;6.040;2024-02-14T09:02:29;33.00;;;14.43;;
14088;SDS011;7120;52.890;6.040;2024-02-14T09:04:54;40.73;;;21.27;;
14088;SDS011;7120;52.890;6.040;2024-02-14T09:07:20;79.53;;;52.27;;
14088;SDS011;7120;52.890;6.040;2024-02-14T09:09:45;46.00;;;37.23;;
14088;SDS011;7120;52.890;6.040;2024-02-14T09:12:11;25.23;;;14.90;;
14088;SDS011;7120;52.890;6.040;2024-02-14T09:14:36;24.17;;;13.77;;
14088;SDS011;7120;52.890;6.040;2024-02-14T09:17:02;25.70;;;13.17;;
14088;SDS011;7120;52.890;6.040;2024-02-14T09:19:27;24.80;;;13.10;;
14088;SDS011;7120;52.890;6.040;2024-02-14T09:21:52;22.10;;;14.07;;
14088;SDS011;7120;52.890;6.040;2024-02-14T09:24:17;24.47;;;13.40;;
14088;SDS011;7120;52.890;6.040;2024-02-14T09:26:43;19.23;;;12.70;;
14088;SDS011;7120;52.890;6.040;2024-02-14T09:29:08;21.93;;;12.70;;
14088;SDS011;7120;52.890;6.040;2024-02-14T09:31:36;20.40;;;11.50;;
14088;SDS011;7120;52.890;6.040;2024-02-14T09:34:01;21.10;;;12.60;;
14088;SDS011;7120;52.890;6.040;2024-02-14T09:36:26;16.87;;;12.70;;
14088;SDS011;7120;52.890;6.040;2024-02-14T09:38:52;23.87;;;13.90;;
14088;SDS011;7120;52.890;6.040;2024-02-14T09:41:22;20.70;;;12.23;;
14088;SDS011;7120;52.890;6.040;2024-02-14T09:43:54;19.70;;;14.53;;
14088;SDS011;7120;52.890;6.040;2024-02-14T09:46:19;22.90;;;13.03;;
14088;SDS011;7120;52.890;6.040;2024-02-14T09:48:49;20.60;;;14.10;;
14088;SDS011;7120;52.890;6.040;2024-02-14T09:51:17;21.07;;;13.70;;
14088;SDS011;7120;52.890;6.040;2024-02-14T09:53:45;18.87;;;13.47;;
14088;SDS011;7120;52.890;6.040;2024-02-14T09:56:22;26.73;;;15.07;;
14088;SDS011;7120;52.890;6.040;2024-02-14T09:58:49;26.70;;;16.63;;
14088;SDS011;7120;52.890;6.040;2024-02-14T10:01:24;31.50;;;17.97;;
14088;SDS011;7120;52.890;6.040;2024-02-14T10:03:50;25.17;;;16.40;;
14088;SDS011;7120;52.890;6.040;2024-02-14T10:06:17;35.90;;;18.83;;
14088;SDS011;7120;52.890;6.040;2024-02-14T10:08:45;31.10;;;18.33;;
14088;SDS011;7120;52.890;6.040;2024-02-14T10:11:12;32.80;;;20.30;;
14088;SDS011;7120;52.890;6.040;2024-02-14T10:13:40;31.57;;;18.80;;
14088;SDS011;7120;52.890;6.040;2024-02-14T10:16:06;34.37;;;20.03;;
14088;SDS011;7120;52.890;6.040;2024-02-14T10:18:33;30.57;;;17.47;;
14088;SDS011;7120;52.890;6.040;2024-02-14T10:20:59;28.33;;;17.03;;
14088;SDS011;7120;52.890;6.040;2024-02-14T10:23:26;29.10;;;17.90;;
14088;SDS011;7120;52.890;6.040;2024-02-14T10:25:53;22.17;;;16.57;;
14088;SDS011;7120;52.890;6.040;2024-02-14T10:28:21;26.50;;;14.67;;
14088;SDS011;7120;52.890;6.040;2024-02-14T10:30:47;27.17;;;15.87;;
14088;SDS011;7120;52.890;6.040;2024-02-14T10:33:14;17.40;;;14.40;;
14088;SDS011;7120;52.890;6.040;2024-02-14T10:35:44;21.83;;;14.90;;
14088;SDS011;7120;52.890;6.040;2024-02-14T10:38:10;21.70;;;13.70;;
14088;SDS011;7120;52.890;6.040;2024-02-14T10:40:37;21.47;;;15.40;;
14088;SDS011;7120;52.890;6.040;2024-02-14T10:43:07;17.70;;;14.00;;
14088;SDS011;7120;52.890;6.040;2024-02-14T10:45:39;17.70;;;14.47;;
14088;SDS011;7120;52.890;6.040;2024-02-14T10:48:05;21.07;;;15.77;;
14088;SDS011;7120;52.890;6.040;2024-02-14T10:50:36;22.23;;;16.23;;
14088;SDS011;7120;52.890;6.040;2024-02-14T10:53:06;23.70;;;16.73;;
14088;SDS011;7120;52.890;6.040;2024-02-14T10:55:37;20.63;;;13.77;;
14088;SDS011;7120;52.890;6.040;2024-02-14T10:58:05;19.77;;;15.67;;
14088;SDS011;7120;52.890;6.040;2024-02-14T11:00:33;19.87;;;15.40;;
14088;SDS011;7120;52.890;6.040;2024-02-14T11:02:58;18.33;;;15.03;;
14088;SDS011;7120;52.890;6.040;2024-02-14T11:05:25;16.70;;;13.27;;
14088;SDS011;7120;52.890;6.040;2024-02-14T11:07:51;17.20;;;14.37;;
14088;SDS011;7120;52.890;6.040;2024-02-14T11:10:20;13.27;;;11.97;;
14088;SDS011;7120;52.890;6.040;2024-02-14T11:12:47;16.87;;;12.47;;
14088;SDS011;7120;52.890;6.040;2024-02-14T11:15:17;15.43;;;12.87;;
14088;SDS011;7120;52.890;6.040;2024-02-14T11:17:43;20.03;;;13.97;;
14088;SDS011;7120;52.890;6.040;2024-02-14T11:20:15;20.90;;;15.37;;
14088;SDS011;7120;52.890;6.040;2024-02-14T11:25:23;20.03;;;14.80;;
14088;SDS011;7120;52.890;6.040;2024-02-14T11:27:54;16.53;;;14.70;;
14088;SDS011;7120;52.890;6.040;2024-02-14T11:30:28;55.80;;;49.60;;
14088;SDS011;7120;52.890;6.040;2024-02-14T11:32:54;24.63;;;22.30;;
14088;SDS011;7120;52.890;6.040;2024-02-14T11:35:20;17.73;;;15.90;;
14088;SDS011;7120;52.890;6.040;2024-02-14T11:37:51;14.70;;;13.20;;
14088;SDS011;7120;52.890;6.040;2024-02-14T11:40:19;14.40;;;13.20;;
14088;SDS011;7120;52.890;6.040;2024-02-14T11:42:45;12.70;;;11.50;;
14088;SDS011;7120;52.890;6.040;2024-02-14T11:45:12;13.37;;;12.17;;
14088;SDS011;7120;52.890;6.040;2024-02-14T11:47:38;12.53;;;11.33;;
14088;SDS011;7120;52.890;6.040;2024-02-14T11:50:04;11.70;;;10.50;;
14088;SDS011;7120;52.890;6.040;2024-02-14T11:52:30;12.93;;;11.87;;
14088;SDS011;7120;52.890;6.040;2024-02-14T11:54:55;12.13;;;11.13;;
14088;SDS011;7120;52.890;6.040;2024-02-14T11:57:22;12.00;;;11.10;;
14088;SDS011;7120;52.890;6.040;2024-02-14T11:59:50;11.20;;;10.30;;
14088;SDS011;7120;52.890;6.040;2024-02-14T12:02:17;11.63;;;10.63;;
14088;SDS011;7120;52.890;6.040;2024-02-14T12:04:44;11.00;;;10.20;;
14088;SDS011;7120;52.890;6.040;2024-02-14T12:07:10;10.77;;;9.93;;
14088;SDS011;7120;52.890;6.040;2024-02-14T12:09:39;11.50;;;10.50;;
14088;SDS011;7120;52.890;6.040;2024-02-14T12:12:04;11.80;;;10.73;;
14088;SDS011;7120;52.890;6.040;2024-02-14T12:14:33;12.70;;;11.53;;
14088;SDS011;7120;52.890;6.040;2024-02-14T12:16:59;12.63;;;11.63;;
14088;SDS011;7120;52.890;6.040;2024-02-14T12:19:28;12.80;;;11.60;;
14088;SDS011;7120;52.890;6.040;2024-02-14T12:21:54;13.60;;;12.40;;
14088;SDS011;7120;52.890;6.040;2024-02-14T12:24:21;13.57;;;12.23;;
14088;SDS011;7120;52.890;6.040;2024-02-14T12:26:48;13.43;;;12.13;;
14088;SDS011;7120;52.890;6.040;2024-02-14T12:29:14;13.90;;;12.60;;
14088;SDS011;7120;52.890;6.040;2024-02-14T12:31:39;14.40;;;12.90;;
14088;SDS011;7120;52.890;6.040;2024-02-14T12:34:04;14.77;;;13.27;;
14088;SDS011;7120;52.890;6.040;2024-02-14T12:36:30;14.90;;;13.47;;
14088;SDS011;7120;52.890;6.040;2024-02-14T12:39:02;13.90;;;12.70;;
14088;SDS011;7120;52.890;6.040;2024-02-14T12:41:28;15.07;;;13.47;;
14088;SDS011;7120;52.890;6.040;2024-02-14T12:43:57;16.60;;;15.03;;
14088;SDS011;7120;52.890;6.040;2024-02-14T12:46:23;21.17;;;18.83;;
14088;SDS011;7120;52.890;6.040;2024-02-14T12:48:49;41.93;;;34.37;;
14088;SDS011;7120;52.890;6.040;2024-02-14T12:51:14;18.33;;;16.37;;
14088;SDS011;7120;52.890;6.040;2024-02-14T12:53:40;17.03;;;15.27;;
14088;SDS011;7120;52.890;6.040;2024-02-14T12:56:05;18.30;;;16.40;;
14088;SDS011;7120;52.890;6.040;2024-02-14T12:58:32;20.73;;;19.00;;
14088;SDS011;7120;52.890;6.040;2024-02-14T13:00:57;23.47;;;21.43;;
14088;SDS011;7120;52.890;6.040;2024-02-14T13:03:23;16.73;;;15.10;;
14088;SDS011;7120;52.890;6.040;2024-02-14T13:05:49;26.70;;;24.57;;
14088;SDS011;7120;52.890;6.040;2024-02-14T13:08:15;18.37;;;16.63;;
14088;SDS011;7120;52.890;6.040;2024-02-14T13:10:41;15.67;;;14.20;;
14088;SDS011;7120;52.890;6.040;2024-02-14T13:13:07;17.47;;;15.77;;
14088;SDS011;7120;52.890;6.040;2024-02-14T13:15:32;17.90;;;16.10;;
14088;SDS011;7120;52.890;6.040;2024-02-14T13:17:57;17.87;;;16.17;;
14088;SDS011;7120;52.890;6.040;2024-02-14T13:20:24;18.87;;;17.00;;
14088;SDS011;7120;52.890;6.040;2024-02-14T13:22:49;19.13;;;17.43;;
14088;SDS011;7120;52.890;6.040;2024-02-14T13:25:15;19.10;;;17.37;;
14088;SDS011;7120;52.890;6.040;2024-02-14T13:27:40;17.57;;;15.77;;
14088;SDS011;7120;52.890;6.040;2024-02-14T13:30:06;17.63;;;15.97;;
14088;SDS011;7120;52.890;6.040;2024-02-14T13:32:34;16.13;;;14.73;;
14088;SDS011;7120;52.890;6.040;2024-02-14T13:34:59;16.40;;;14.80;;
14088;SDS011;7120;52.890;6.040;2024-02-14T13:37:24;29.43;;;26.63;;
14088;SDS011;7120;52.890;6.040;2024-02-14T13:39:50;16.37;;;14.97;;
14088;SDS011;7120;52.890;6.040;2024-02-14T13:42:16;16.70;;;15.10;;
14088;SDS011;7120;52.890;6.040;2024-02-14T13:44:41;14.93;;;13.60;;
14088;SDS011;7120;52.890;6.040;2024-02-14T13:47:08;14.57;;;13.27;;
14088;SDS011;7120;52.890;6.040;2024-02-14T13:49:33;13.90;;;12.77;;
14088;SDS011;7120;52.890;6.040;2024-02-14T13:51:58;12.87;;;11.73;;
14088;SDS011;7120;52.890;6.040;2024-02-14T13:54:24;13.30;;;12.20;;
14088;SDS011;7120;52.890;6.040;2024-02-14T13:56:49;11.90;;;10.70;;
14088;SDS011;7120;52.890;6.040;2024-02-14T13:59:15;11.80;;;10.90;;
14088;SDS011;7120;52.890;6.040;2024-02-14T14:01:41;12.30;;;11.20;;
14088;SDS011;7120;52.890;6.040;2024-02-14T14:04:07;12.17;;;11.03;;
14088;SDS011;7120;52.890;6.040;2024-02-14T14:06:33;12.03;;;11.03;;
14088;SDS011;7120;52.890;6.040;2024-02-14T14:08:59;11.40;;;10.23;;
14088;SDS011;7120;52.890;6.040;2024-02-14T14:11:25;10.73;;;9.73;;
14088;SDS011;7120;52.890;6.040;2024-02-14T14:13:50;10.63;;;9.70;;
14088;SDS011;7120;52.890;6.040;2024-02-14T14:16:16;10.60;;;9.60;;
14088;SDS011;7120;52.890;6.040;2024-02-14T14:18:42;12.00;;;11.00;;
14088;SDS011;7120;52.890;6.040;2024-02-14T14:21:07;11.37;;;10.27;;
14088;SDS011;7120;52.890;6.040;2024-02-14T14:23:33;12.60;;;11.40;;
14088;SDS011;7120;52.890;6.040;2024-02-14T14:25:58;13.67;;;11.90;;
14088;SDS011;7120;52.890;6.040;2024-02-14T14:28:25;12.77;;;11.13;;
14088;SDS011;7120;52.890;6.040;2024-02-14T14:30:51;12.97;;;11.83;;
14088;SDS011;7120;52.890;6.040;2024-02-14T14:33:17;12.60;;;11.30;;